Terminal Aerodrome Forecast
Issued by NWS

Home | Current Version | Previous Version | Graphics & Text | Print | Product List | Glossary On
Versions: 1 2 3 4 5 6 7 8 9 10 11 12 13
384
FTUS43 KIWX 212321
TAFSBN
TAF
KSBN 212321Z 2200/2224 30010KT P6SM SCT080
     FM220200 28003KT P6SM SCT250
     FM221600 22008KT P6SM SCT040=

USA.gov is the U.S. government's official web portal to all federal, state and local government web resources and services.